Time;durP1;ratioP1;P1;durP2;ratioP2;P2;SDS_P1;SDS_P2;PMS_P1;PMS_P2;Temp;Humidity;BMP_temperature;BMP_pressure;BME280_temperature;BME280_humidity;BME280_pressure;Samples;Min_cycle;Max_cycle;Signal;HPM_P1;HPM_P2
2022/11/25 00:00:25;;;;;;;14.43;7.40;;;2.50;99.90;;;;;;5072808;28;20474;-84
2022/11/25 00:02:51;;;;;;;18.80;8.30;;;2.60;99.90;;;;;;5071987;28;20351;-85
2022/11/25 00:05:17;;;;;;;14.63;8.02;;;2.60;99.90;;;;;;5073117;28;20477;-84
2022/11/25 00:07:43;;;;;;;16.30;7.38;;;2.60;99.90;;;;;;5062557;28;20044;-84
2022/11/25 00:10:10;;;;;;;17.10;7.45;;;2.60;99.90;;;;;;5073508;28;20029;-84
2022/11/25 00:12:36;;;;;;;18.85;9.00;;;2.60;99.90;;;;;;5071745;28;20041;-84
2022/11/25 00:15:02;;;;;;;16.15;7.85;;;2.60;99.90;;;;;;5072279;28;20029;-85
2022/11/25 00:17:29;;;;;;;14.32;7.38;;;2.60;99.90;;;;;;5078430;28;20048;-82
2022/11/25 00:19:55;;;;;;;15.70;7.43;;;2.60;99.90;;;;;;5078775;28;20040;-85
2022/11/25 00:22:21;;;;;;;19.73;7.53;;;2.60;99.90;;;;;;5074261;28;20035;-84
2022/11/25 00:24:47;;;;;;;16.30;7.70;;;2.70;99.90;;;;;;5071883;28;20043;-84
2022/11/25 00:27:13;;;;;;;17.02;6.85;;;2.70;99.90;;;;;;5076248;28;20055;-84
2022/11/25 00:29:39;;;;;;;12.48;6.53;;;2.60;99.90;;;;;;5090277;28;20037;-84
2022/11/25 00:32:06;;;;;;;10.73;5.82;;;2.60;99.90;;;;;;5084134;28;20029;-85
2022/11/25 00:34:32;;;;;;;12.43;6.28;;;2.70;99.90;;;;;;5093110;28;20029;-81
2022/11/25 00:36:58;;;;;;;13.55;6.85;;;2.70;99.90;;;;;;5111451;28;20023;-83
2022/11/25 00:39:25;;;;;;;13.02;6.40;;;2.70;99.90;;;;;;5114244;28;20028;-83
2022/11/25 00:44:38;;;;;;;11.13;6.15;;;2.60;99.90;;;;;;5079312;28;20116;-85
2022/11/25 00:47:12;;;;;;;10.10;5.43;;;2.60;99.90;;;;;;5074516;28;20044;-85
2022/11/25 00:49:40;;;;;;;20.40;8.23;;;2.70;99.90;;;;;;5072544;28;20504;-84
2022/11/25 00:52:08;;;;;;;10.07;5.40;;;2.70;99.90;;;;;;5080523;28;20029;-85
2022/11/25 00:54:34;;;;;;;10.55;5.80;;;2.70;99.90;;;;;;5070096;28;20048;-84
2022/11/25 00:57:00;;;;;;;9.35;5.57;;;2.70;99.90;;;;;;5070937;28;20032;-85
2022/11/25 00:59:29;;;;;;;12.23;6.55;;;2.60;99.90;;;;;;5070112;28;20040;-85
2022/11/25 01:01:55;;;;;;;11.77;6.38;;;2.60;99.90;;;;;;5088162;28;20028;-85
2022/11/25 01:04:22;;;;;;;13.93;5.57;;;2.60;99.90;;;;;;5091285;28;20036;-85
2022/11/25 01:06:48;;;;;;;16.95;6.07;;;2.60;99.90;;;;;;5087559;28;20085;-85
2022/11/25 01:09:14;;;;;;;15.15;6.32;;;2.50;99.90;;;;;;5091532;28;20040;-85
2022/11/25 01:11:41;;;;;;;16.85;6.55;;;2.50;99.90;;;;;;5090794;28;20039;-84
2022/11/25 01:14:08;;;;;;;12.85;5.30;;;2.50;99.90;;;;;;5091591;28;20035;-85
2022/11/25 01:16:35;;;;;;;11.18;5.35;;;2.50;99.90;;;;;;5080565;28;20055;-82
2022/11/25 01:19:02;;;;;;;16.10;7.00;;;2.40;99.90;;;;;;5090291;28;20037;-84
2022/11/25 01:21:31;;;;;;;13.95;5.82;;;2.40;99.90;;;;;;5089773;28;20047;-85
2022/11/25 01:24:01;;;;;;;13.00;5.28;;;2.40;99.90;;;;;;5089524;28;20036;-85
2022/11/25 01:26:29;;;;;;;12.05;6.18;;;2.40;99.90;;;;;;5073697;28;20041;-85
2022/11/25 01:29:00;;;;;;;10.32;5.20;;;2.40;99.90;;;;;;5071108;28;20036;-84
2022/11/25 01:31:29;;;;;;;11.57;5.32;;;2.40;99.90;;;;;;5071963;28;20029;-84
2022/11/25 01:33:59;;;;;;;13.07;5.22;;;2.40;99.90;;;;;;5071185;28;20450;-84
2022/11/25 01:36:26;;;;;;;10.77;5.10;;;2.40;99.90;;;;;;5069738;28;20028;-85
2022/11/25 01:38:55;;;;;;;11.95;5.55;;;2.40;99.90;;;;;;5077863;28;20028;-84
2022/11/25 01:41:22;;;;;;;12.15;6.63;;;2.50;99.90;;;;;;5072150;28;20025;-85
2022/11/25 01:44:06;;;;;;;13.82;5.85;;;2.50;99.90;;;;;;5069741;28;20385;-84
2022/11/25 01:46:53;;;;;;;11.88;5.07;;;2.60;99.90;;;;;;5084602;28;20087;-81
2022/11/25 01:49:28;;;;;;;12.85;5.32;;;2.50;99.90;;;;;;5071761;28;20033;-84
2022/11/25 01:52:13;;;;;;;17.63;6.40;;;2.60;99.90;;;;;;5069845;28;20457;-84
2022/11/25 01:55:10;;;;;;;12.35;6.93;;;2.60;99.90;;;;;;5085923;28;20481;-84
2022/11/25 01:57:47;;;;;;;17.35;6.53;;;2.90;99.90;;;;;;5062862;28;20047;-81
2022/11/25 02:00:14;;;;;;;13.25;5.88;;;2.90;99.90;;;;;;5067171;28;20052;-84
2022/11/25 02:02:52;;;;;;;14.30;6.25;;;2.80;99.90;;;;;;5074627;28;20508;-84
2022/11/25 02:05:56;;;;;;;11.35;4.72;;;2.70;99.90;;;;;;5080302;28;20048;-84
2022/11/25 02:08:24;;;;;;;16.13;7.05;;;2.70;99.90;;;;;;5060987;28;20053;-84
2022/11/25 02:10:52;;;;;;;16.50;6.40;;;2.70;99.90;;;;;;5073523;28;20044;-84
2022/11/25 02:13:21;;;;;;;15.40;5.85;;;2.70;99.90;;;;;;5074233;28;20044;-84
2022/11/25 02:15:47;;;;;;;17.48;7.07;;;2.90;99.90;;;;;;5079710;28;20020;-84
2022/11/25 02:18:13;;;;;;;15.00;6.93;;;3.00;99.90;;;;;;5091861;28;20067;-84
2022/11/25 02:20:39;;;;;;;11.68;5.45;;;3.00;99.90;;;;;;5092558;28;20078;-83
2022/11/25 02:23:18;;;;;;;12.90;6.60;;;3.00;99.90;;;;;;5081217;28;20047;-84
2022/11/25 02:25:46;;;;;;;14.90;6.03;;;3.00;99.90;;;;;;5089082;28;20040;-83
2022/11/25 02:28:20;;;;;;;14.00;6.88;;;3.00;99.90;;;;;;5065885;28;20052;-83
2022/11/25 02:30:47;;;;;;;13.82;6.22;;;3.00;99.90;;;;;;5067062;28;20041;-84
2022/11/25 02:33:14;;;;;;;16.23;6.65;;;3.00;99.90;;;;;;5073493;28;20040;-83
2022/11/25 02:35:42;;;;;;;18.40;6.63;;;2.90;99.90;;;;;;5072284;28;20040;-83
2022/11/25 02:38:20;;;;;;;12.57;6.95;;;2.90;99.90;;;;;;5065714;28;20047;-83
2022/11/25 02:41:01;;;;;;;15.75;6.45;;;2.90;99.90;;;;;;5068441;28;20036;-83
2022/11/25 02:43:28;;;;;;;17.63;7.53;;;3.00;99.90;;;;;;5073137;28;20040;-83
2022/11/25 02:46:13;;;;;;;12.90;5.85;;;3.10;99.90;;;;;;5071621;28;20042;-82
2022/11/25 02:48:41;;;;;;;16.25;5.95;;;3.20;99.90;;;;;;5072440;28;20083;-81
2022/11/25 02:51:11;;;;;;;16.90;5.57;;;3.20;99.90;;;;;;5074637;28;20029;-84
2022/11/25 02:53:40;;;;;;;16.52;6.05;;;3.30;99.90;;;;;;5077866;28;20040;-81
2022/11/25 02:56:07;;;;;;;15.32;7.00;;;3.50;99.90;;;;;;5091662;28;20040;-83
2022/11/25 02:58:33;;;;;;;18.20;6.93;;;3.50;99.90;;;;;;5091852;28;20044;-84
2022/11/25 03:00:59;;;;;;;14.02;5.90;;;3.70;99.90;;;;;;5092526;28;20625;-85
2022/11/25 03:03:26;;;;;;;17.77;7.15;;;3.70;99.90;;;;;;5075467;28;20043;-85
2022/11/25 03:05:52;;;;;;;21.17;6.30;;;3.90;99.90;;;;;;5091156;28;20059;-83
2022/11/25 03:08:19;;;;;;;17.25;6.40;;;3.90;99.90;;;;;;5090501;28;20419;-85
2022/11/25 03:10:45;;;;;;;17.30;7.15;;;3.90;99.90;;;;;;5091964;28;20047;-84
2022/11/25 03:13:12;;;;;;;19.05;6.85;;;3.90;99.90;;;;;;5082682;28;20398;-84
2022/11/25 03:15:39;;;;;;;17.75;6.22;;;3.90;99.90;;;;;;5073337;28;20041;-82
2022/11/25 03:18:06;;;;;;;14.32;5.63;;;3.90;99.90;;;;;;5071998;28;20024;-83
2022/11/25 03:20:34;;;;;;;18.70;6.93;;;3.80;99.90;;;;;;5072410;28;20123;-83
2022/11/25 03:23:03;;;;;;;13.75;5.53;;;3.80;99.90;;;;;;5075462;28;20032;-84
2022/11/25 03:25:29;;;;;;;14.20;5.93;;;3.80;99.90;;;;;;5092100;28;20043;-84
2022/11/25 03:27:56;;;;;;;20.77;6.63;;;3.80;99.90;;;;;;5089548;28;20071;-85
2022/11/25 03:30:25;;;;;;;14.52;5.43;;;3.70;99.90;;;;;;5091722;28;20040;-84
2022/11/25 03:32:55;;;;;;;11.48;5.47;;;3.70;99.90;;;;;;5090873;28;20059;-85
2022/11/25 03:35:24;;;;;;;9.45;4.53;;;3.70;99.90;;;;;;5091229;28;20044;-85
2022/11/25 03:37:50;;;;;;;16.05;5.25;;;3.70;99.90;;;;;;5088603;28;20040;-85
2022/11/25 03:40:17;;;;;;;11.07;5.30;;;3.70;99.90;;;;;;5091275;28;20040;-84
2022/11/25 03:42:44;;;;;;;10.95;5.05;;;3.70;99.90;;;;;;5090374;28;20047;-84
2022/11/25 03:45:14;;;;;;;14.38;5.15;;;3.70;99.90;;;;;;5091094;28;20036;-84
2022/11/25 03:47:42;;;;;;;11.57;4.80;;;3.60;99.90;;;;;;5089544;28;20416;-82
2022/11/25 03:50:11;;;;;;;13.00;5.70;;;3.60;99.90;;;;;;5091275;28;20084;-85
2022/11/25 03:52:37;;;;;;;12.82;5.80;;;3.70;99.90;;;;;;5091623;28;20032;-86
2022/11/25 03:55:05;;;;;;;12.70;6.00;;;3.70;99.90;;;;;;5089964;28;20040;-86
2022/11/25 03:57:33;;;;;;;15.57;5.75;;;3.70;99.90;;;;;;5089512;28;20044;-84
2022/11/25 04:00:00;;;;;;;11.50;4.70;;;3.60;99.90;;;;;;5089307;28;20247;-84
2022/11/25 04:02:31;;;;;;;12.07;6.03;;;3.60;99.90;;;;;;5107746;28;20126;-84
2022/11/25 04:04:57;;;;;;;13.18;5.30;;;3.60;99.90;;;;;;5089936;28;20040;-85
2022/11/25 04:07:23;;;;;;;12.43;5.90;;;3.60;99.90;;;;;;5089308;28;20044;-84
2022/11/25 04:09:49;;;;;;;13.75;4.57;;;3.70;99.90;;;;;;5091764;28;20422;-85
2022/11/25 04:15:06;;;;;;;14.45;5.38;;;3.90;99.90;;;;;;5090259;28;20377;-85
2022/11/25 04:17:33;;;;;;;10.20;4.88;;;4.00;99.90;;;;;;5087296;28;20051;-85
2022/11/25 04:20:00;;;;;;;14.50;5.55;;;4.10;99.90;;;;;;5070349;28;20600;-86
2022/11/25 04:22:28;;;;;;;12.02;4.78;;;4.20;99.90;;;;;;5071350;28;20089;-87
2022/11/25 04:24:54;;;;;;;8.95;4.45;;;4.40;99.90;;;;;;5074919;28;20393;-86
2022/11/25 04:27:25;;;;;;;10.68;5.18;;;4.50;99.90;;;;;;5069596;28;20389;-85
2022/11/25 04:29:52;;;;;;;13.25;4.97;;;4.50;99.90;;;;;;5070659;28;20051;-85
2022/11/25 04:32:20;;;;;;;9.93;4.72;;;4.50;99.90;;;;;;5071195;28;20044;-85
2022/11/25 04:34:46;;;;;;;13.50;5.13;;;4.50;99.90;;;;;;5070133;28;20036;-84
2022/11/25 04:37:15;;;;;;;11.00;4.95;;;4.70;99.90;;;;;;5069289;28;20044;-85
2022/11/25 04:39:42;;;;;;;8.65;4.55;;;4.80;99.90;;;;;;5071704;28;20457;-85
2022/11/25 04:42:33;;;;;;;17.73;4.80;;;4.90;99.90;;;;;;5073794;28;20450;-86
2022/11/25 04:45:04;;;;;;;9.73;4.40;;;5.00;99.90;;;;;;5071172;28;20052;-87
2022/11/25 04:47:31;;;;;;;14.63;5.93;;;5.10;99.90;;;;;;5091179;28;20044;-89
2022/11/25 04:49:57;;;;;;;11.07;4.63;;;5.30;99.90;;;;;;5097513;28;20024;-89
2022/11/25 04:52:25;;;;;;;10.82;4.65;;;5.50;99.90;;;;;;5091910;28;20048;-88
2022/11/25 04:54:52;;;;;;;13.38;5.05;;;5.70;99.90;;;;;;5087184;28;20021;-88
2022/11/25 04:57:19;;;;;;;11.82;3.95;;;5.60;99.90;;;;;;5094942;28;20051;-87
2022/11/25 04:59:46;;;;;;;8.93;4.60;;;5.70;99.90;;;;;;5082159;28;20052;-86
2022/11/25 05:02:19;;;;;;;12.85;4.45;;;5.60;99.40;;;;;;5087265;28;20043;-89
2022/11/25 05:05:00;;;;;;;9.68;3.60;;;5.60;99.00;;;;;;5078745;28;20055;-88
2022/11/25 05:07:28;;;;;;;10.05;3.80;;;5.50;99.90;;;;;;5091408;28;20051;-87
2022/11/25 05:09:56;;;;;;;7.82;3.13;;;5.30;99.90;;;;;;5064040;28;20394;-87
2022/11/25 05:12:48;;;;;;;10.98;4.72;;;5.20;99.90;;;;;;5067098;28;20048;-87
2022/11/25 05:15:17;;;;;;;9.32;3.15;;;5.10;99.90;;;;;;5072579;28;20040;-87
2022/11/25 05:17:46;;;;;;;6.97;2.92;;;5.00;99.90;;;;;;5088375;28;20056;-85
2022/11/25 05:20:13;;;;;;;10.35;2.90;;;4.90;99.90;;;;;;5073895;28;20044;-88
2022/11/25 05:22:39;;;;;;;13.85;6.55;;;4.80;99.90;;;;;;5092366;28;20047;-86
2022/11/25 05:25:09;;;;;;;7.00;3.20;;;4.70;99.90;;;;;;5089528;28;20366;-85
2022/11/25 05:27:40;;;;;;;6.78;3.05;;;4.60;99.90;;;;;;5088420;28;20048;-87
2022/11/25 05:30:09;;;;;;;9.00;4.10;;;4.60;99.90;;;;;;5066328;28;20063;-85
2022/11/25 05:32:36;;;;;;;10.88;4.22;;;4.60;99.90;;;;;;5091218;28;20373;-85
2022/11/25 05:35:07;;;;;;;14.85;4.88;;;4.60;99.90;;;;;;5077086;28;20044;-86
2022/11/25 05:37:33;;;;;;;8.93;4.20;;;4.70;99.90;;;;;;5091971;28;20044;-85
2022/11/25 05:40:04;;;;;;;12.55;5.15;;;4.90;99.90;;;;;;5074084;28;20036;-86
2022/11/25 05:43:02;;;;;;;9.68;3.83;;;4.90;99.90;;;;;;5063054;28;20111;-87
2022/11/25 05:45:30;;;;;;;10.45;3.80;;;5.00;99.90;;;;;;5087615;28;20056;-84
2022/11/25 05:47:57;;;;;;;8.98;3.65;;;5.10;99.90;;;;;;5074443;28;20048;-89
2022/11/25 05:50:25;;;;;;;8.32;3.53;;;5.20;99.90;;;;;;5097035;28;20040;-88
2022/11/25 05:53:16;;;;;;;8.50;4.15;;;5.30;99.90;;;;;;5100516;28;20043;-88
2022/11/25 05:55:43;;;;;;;5.10;3.10;;;5.30;99.90;;;;;;5079190;28;20039;-86
2022/11/25 05:58:21;;;;;;;11.82;5.20;;;5.40;99.90;;;;;;5072989;28;20045;-89
2022/11/25 06:00:51;;;;;;;10.35;3.22;;;5.40;99.90;;;;;;5083524;28;20060;-88
2022/11/25 06:03:18;;;;;;;7.57;3.03;;;5.50;99.90;;;;;;5073977;28;20036;-87
2022/11/25 06:05:44;;;;;;;8.30;2.65;;;5.70;99.90;;;;;;5077261;28;20040;-85
2022/11/25 06:08:10;;;;;;;7.50;3.03;;;5.70;99.90;;;;;;5080692;28;20060;-85
2022/11/25 06:10:39;;;;;;;10.13;2.72;;;5.80;99.90;;;;;;5076891;28;20040;-84
2022/11/25 06:13:07;;;;;;;10.20;3.55;;;5.80;98.00;;;;;;5085296;28;20107;-83
2022/11/25 06:15:33;;;;;;;7.75;2.97;;;5.80;96.10;;;;;;5075590;28;20091;-82
2022/11/25 06:18:00;;;;;;;7.95;2.80;;;5.90;94.90;;;;;;5078499;28;20052;-82
2022/11/25 06:20:27;;;;;;;6.00;2.72;;;5.90;94.20;;;;;;5073065;28;20041;-82
2022/11/25 06:22:54;;;;;;;5.55;3.13;;;5.90;93.40;;;;;;5073981;28;20470;-82
2022/11/25 06:25:25;;;;;;;8.80;2.72;;;5.90;91.90;;;;;;5085213;28;20047;-82
2022/11/25 06:27:52;;;;;;;7.22;2.40;;;6.00;91.40;;;;;;5072247;28;20039;-82
2022/11/25 06:30:18;;;;;;;3.80;2.40;;;6.00;90.90;;;;;;5072923;28;20056;-82
2022/11/25 06:32:55;;;;;;;10.48;3.10;;;6.10;90.90;;;;;;5068058;28;20488;-82
2022/11/25 06:35:22;;;;;;;7.40;2.75;;;6.00;90.20;;;;;;5056460;28;20048;-81
2022/11/25 06:37:52;;;;;;;6.68;2.35;;;6.10;89.20;;;;;;5071350;28;20386;-82
2022/11/25 06:40:19;;;;;;;10.27;2.70;;;6.20;89.60;;;;;;5083832;28;20051;-82
2022/11/25 06:42:45;;;;;;;5.38;2.80;;;6.30;90.80;;;;;;5087870;28;20373;-80
2022/11/25 06:45:11;;;;;;;5.45;3.67;;;6.20;93.10;;;;;;5078668;28;20040;-80
2022/11/25 06:47:37;;;;;;;9.88;3.22;;;6.20;93.80;;;;;;5073603;28;20028;-80
2022/11/25 06:50:04;;;;;;;4.95;2.20;;;6.20;95.00;;;;;;5091999;28;20516;-82
2022/11/25 06:52:31;;;;;;;8.93;2.58;;;6.10;97.20;;;;;;5094033;28;20485;-87
2022/11/25 06:54:57;;;;;;;8.80;3.22;;;6.10;97.80;;;;;;5091233;28;20036;-80
2022/11/25 06:57:23;;;;;;;9.30;3.08;;;6.10;99.00;;;;;;5071428;28;20036;-79
2022/11/25 06:59:50;;;;;;;7.20;4.05;;;6.10;98.60;;;;;;5074271;28;20044;-80
2022/11/25 07:02:16;;;;;;;11.85;3.80;;;6.10;99.00;;;;;;5077022;28;20044;-80
2022/11/25 07:04:43;;;;;;;11.68;4.25;;;6.20;97.10;;;;;;5092207;28;20024;-84
2022/11/25 07:07:09;;;;;;;15.00;4.97;;;6.20;96.40;;;;;;5093232;28;20480;-83
2022/11/25 07:09:36;;;;;;;8.25;3.47;;;6.20;97.10;;;;;;5092283;28;20051;-84
2022/11/25 07:12:02;;;;;;;12.13;3.50;;;6.10;98.50;;;;;;5091851;28;20036;-84
2022/11/25 07:14:28;;;;;;;11.38;4.55;;;6.20;99.90;;;;;;5092051;28;20039;-85
2022/11/25 07:16:54;;;;;;;8.05;3.85;;;6.10;99.90;;;;;;5084716;28;20033;-84
2022/11/25 07:19:21;;;;;;;12.55;4.22;;;6.10;99.90;;;;;;5092743;28;20055;-84
2022/11/25 07:21:47;;;;;;;7.03;3.75;;;6.10;99.90;;;;;;5092345;28;20032;-82
2022/11/25 07:24:17;;;;;;;7.13;4.47;;;6.10;99.90;;;;;;5075784;28;20043;-83
2022/11/25 07:26:43;;;;;;;7.18;3.72;;;6.00;99.90;;;;;;5085406;28;20039;-83
2022/11/25 07:29:13;;;;;;;10.82;4.32;;;6.00;99.90;;;;;;5084724;28;20477;-82
2022/11/25 07:31:41;;;;;;;17.42;6.00;;;6.00;99.90;;;;;;5093312;28;20036;-83
2022/11/25 07:34:13;;;;;;;8.13;3.80;;;6.00;99.90;;;;;;5078263;28;20025;-84
2022/11/25 07:36:40;;;;;;;10.57;4.20;;;6.00;99.90;;;;;;5090651;28;20385;-82
2022/11/25 07:39:09;;;;;;;7.97;4.13;;;6.00;99.90;;;;;;5090494;28;20060;-83
2022/11/25 07:41:36;;;;;;;9.15;4.20;;;5.90;99.90;;;;;;5084537;28;20044;-84
2022/11/25 07:44:04;;;;;;;9.90;3.65;;;6.00;99.90;;;;;;5095982;28;20028;-85
2022/11/25 07:46:44;;;;;;;11.15;4.13;;;6.00;99.90;;;;;;5077722;28;20465;-84
2022/11/25 07:49:17;;;;;;;8.70;3.30;;;6.10;99.90;;;;;;5074179;28;20384;-86
2022/11/25 07:51:55;;;;;;;7.32;3.35;;;6.10;99.90;;;;;;5074300;28;20098;-86
2022/11/25 07:54:22;;;;;;;8.13;4.10;;;6.10;99.90;;;;;;5084182;28;20032;-84
2022/11/25 07:56:49;;;;;;;9.30;4.90;;;6.10;99.90;;;;;;5085950;28;20024;-83
2022/11/25 07:59:19;;;;;;;16.15;7.20;;;6.10;99.90;;;;;;5091669;28;20055;-82
2022/11/25 08:01:47;;;;;;;40.58;19.60;;;6.10;99.90;;;;;;5093178;28;20358;-82
2022/11/25 08:04:14;;;;;;;14.52;6.30;;;6.10;99.90;;;;;;5091500;28;20422;-83
2022/11/25 08:06:43;;;;;;;10.23;4.50;;;6.10;99.90;;;;;;5090815;28;20024;-82
2022/11/25 08:09:11;;;;;;;32.17;15.63;;;6.20;99.90;;;;;;5091041;28;20039;-80
2022/11/25 08:11:39;;;;;;;36.67;18.52;;;6.20;99.90;;;;;;5081204;28;20052;-81
2022/11/25 08:14:05;;;;;;;18.25;9.88;;;6.20;99.90;;;;;;5071701;28;20039;-81
2022/11/25 08:16:32;;;;;;;18.38;10.00;;;6.20;99.90;;;;;;5070417;28;20044;-81
2022/11/25 08:19:00;;;;;;;11.73;5.60;;;6.30;99.90;;;;;;5073050;28;20048;-80
2022/11/25 08:21:27;;;;;;;10.82;4.03;;;6.30;99.90;;;;;;5071793;28;20036;-81
2022/11/25 08:23:54;;;;;;;9.68;3.20;;;6.30;99.90;;;;;;5072509;28;20381;-80
2022/11/25 08:26:28;;;;;;;11.77;4.85;;;6.40;99.90;;;;;;5073480;28;20051;-79
2022/11/25 08:28:58;;;;;;;10.40;4.35;;;6.40;98.60;;;;;;5089829;28;20043;-81
2022/11/25 08:31:30;;;;;;;10.23;3.95;;;6.40;99.40;;;;;;5092245;28;20043;-80
2022/11/25 08:33:57;;;;;;;10.27;3.53;;;6.50;99.50;;;;;;5090231;28;20036;-81
2022/11/25 08:36:24;;;;;;;9.73;3.58;;;6.50;99.90;;;;;;5091153;28;20381;-80
2022/11/25 08:38:52;;;;;;;6.13;2.95;;;6.50;98.50;;;;;;5092555;28;20515;-81
2022/11/25 08:41:22;;;;;;;8.65;3.03;;;6.60;98.10;;;;;;5088493;28;20385;-81
2022/11/25 08:43:49;;;;;;;7.47;3.58;;;6.60;95.10;;;;;;5086156;28;20020;-81
2022/11/25 08:46:18;;;;;;;11.25;3.15;;;6.70;90.10;;;;;;5074114;28;20039;-82
2022/11/25 08:48:44;;;;;;;7.82;3.38;;;6.70;88.00;;;;;;5092019;28;20032;-82
2022/11/25 08:51:17;;;;;;;24.70;13.00;;;6.80;85.40;;;;;;5090453;28;20024;-81
2022/11/25 08:53:45;;;;;;;47.78;23.63;;;6.70;87.00;;;;;;5092383;28;20024;-81
2022/11/25 08:56:12;;;;;;;67.35;31.83;;;6.70;84.70;;;;;;5091676;28;20110;-81
2022/11/25 08:58:38;;;;;;;46.03;19.85;;;6.70;85.20;;;;;;5083809;28;20047;-81
2022/11/25 09:01:05;;;;;;;34.38;15.68;;;6.70;83.90;;;;;;5090594;28;20056;-81
2022/11/25 09:03:37;;;;;;;33.15;14.13;;;6.80;83.90;;;;;;5090360;28;20042;-81
2022/11/25 09:06:05;;;;;;;31.88;14.15;;;6.80;81.70;;;;;;5090362;28;20481;-81
2022/11/25 09:08:31;;;;;;;40.53;18.42;;;6.90;78.30;;;;;;5083926;28;20048;-81
2022/11/25 09:10:58;;;;;;;23.65;11.32;;;6.90;77.20;;;;;;5084646;28;20040;-82
2022/11/25 09:13:25;;;;;;;17.85;8.15;;;6.90;72.60;;;;;;5081210;28;20035;-82
2022/11/25 09:15:51;;;;;;;11.45;6.05;;;7.00;75.30;;;;;;5113811;28;20020;-83
2022/11/25 09:18:19;;;;;;;18.70;9.65;;;6.90;77.80;;;;;;5113315;28;20036;-82
2022/11/25 09:20:46;;;;;;;25.05;13.27;;;6.90;79.30;;;;;;5091267;28;20441;-81
2022/11/25 09:23:12;;;;;;;15.90;8.07;;;6.90;78.80;;;;;;5087472;28;20044;-82
2022/11/25 09:25:38;;;;;;;11.05;5.90;;;6.90;81.80;;;;;;5070569;28;20032;-81
2022/11/25 09:28:05;;;;;;;19.63;8.90;;;6.90;84.00;;;;;;5077591;28;20044;-82
2022/11/25 09:30:31;;;;;;;9.68;6.13;;;7.00;80.80;;;;;;5090931;28;20036;-82
2022/11/25 09:32:57;;;;;;;17.98;9.40;;;7.00;82.10;;;;;;5089301;28;20388;-82
2022/11/25 09:35:24;;;;;;;10.45;7.20;;;7.00;78.60;;;;;;5091779;28;20051;-82
2022/11/25 09:37:50;;;;;;;16.58;8.80;;;7.00;78.50;;;;;;5083149;28;20041;-81
2022/11/25 09:40:20;;;;;;;14.80;7.70;;;7.00;77.70;;;;;;5088695;28;20051;-81
2022/11/25 09:46:40;;;;;;;7.72;4.20;;;7.10;73.40;;;;;;5041877;28;20043;-81
2022/11/25 09:49:24;;;;;;;14.05;7.68;;;7.10;68.20;;;;;;5053258;28;20101;-77
2022/11/25 09:51:53;;;;;;;10.55;4.82;;;7.20;76.20;;;;;;5071374;28;20040;-77
2022/11/25 09:54:30;;;;;;;12.98;5.70;;;7.20;72.60;;;;;;5070832;28;20458;-77
2022/11/25 09:57:09;;;;;;;11.18;5.55;;;7.20;70.10;;;;;;5069813;28;20063;-81
2022/11/25 09:59:47;;;;;;;8.73;4.90;;;7.30;69.50;;;;;;5090827;28;20052;-78
2022/11/25 10:02:36;;;;;;;16.40;7.20;;;7.30;74.50;;;;;;5080466;28;20044;-76
2022/11/25 10:05:15;;;;;;;21.13;10.70;;;7.40;70.10;;;;;;5070449;28;20025;-77
2022/11/25 10:07:48;;;;;;;20.45;12.73;;;7.40;66.50;;;;;;5068845;28;20382;-77
2022/11/25 10:10:40;;;;;;;20.90;11.52;;;7.50;65.30;;;;;;5083626;28;20037;-77
2022/11/25 10:13:19;;;;;;;12.85;5.47;;;7.50;62.70;;;;;;5071197;28;20037;-77
2022/11/25 10:15:49;;;;;;;14.20;7.03;;;7.50;55.50;;;;;;5080828;28;20040;-82
2022/11/25 10:18:36;;;;;;;19.75;8.52;;;7.50;60.00;;;;;;5082817;28;20020;-77
2022/11/25 10:21:03;;;;;;;11.75;5.20;;;7.50;60.60;;;;;;5092537;28;20028;-77
2022/11/25 10:23:36;;;;;;;9.05;3.85;;;7.60;57.80;;;;;;5094505;28;20036;-77
2022/11/25 10:26:15;;;;;;;32.00;16.10;;;7.60;52.40;;;;;;5067681;28;20033;-74
2022/11/25 10:29:15;;;;;;;17.27;8.77;;;7.60;54.30;;;;;;5073906;28;20354;-75
2022/11/25 10:31:42;;;;;;;11.07;4.85;;;7.60;52.20;;;;;;5089549;28;20465;-76
2022/11/25 10:34:43;;;;;;;18.17;11.57;;;7.50;54.50;;;;;;5079106;28;20028;-76
2022/11/25 10:37:23;;;;;;;64.50;37.00;;;7.50;52.30;;;;;;5092315;28;20080;-76
2022/11/25 10:39:50;;;;;;;33.35;17.33;;;7.60;60.20;;;;;;5094492;28;20055;-75
2022/11/25 10:42:22;;;;;;;21.77;12.50;;;7.60;59.70;;;;;;5093647;28;20696;-78
2022/11/25 10:44:48;;;;;;;8.20;4.45;;;7.60;59.80;;;;;;5094098;28;20032;-77
2022/11/25 10:47:41;;;;;;;9.57;3.95;;;7.60;57.30;;;;;;5091891;28;20078;-76
2022/11/25 10:50:29;;;;;;;17.00;6.95;;;7.70;53.00;;;;;;5067721;28;20043;-77
2022/11/25 10:52:57;;;;;;;21.15;10.75;;;7.70;55.50;;;;;;5074291;28;20371;-79
2022/11/25 10:55:25;;;;;;;13.75;6.22;;;7.80;53.10;;;;;;5074020;28;20323;-76
2022/11/25 10:57:52;;;;;;;12.95;5.45;;;7.80;53.60;;;;;;5072708;28;20027;-76
2022/11/25 11:00:27;;;;;;;21.17;10.65;;;7.90;53.70;;;;;;5075797;28;20047;-76
2022/11/25 11:02:54;;;;;;;19.88;9.50;;;7.90;55.30;;;;;;5093271;28;20377;-76
2022/11/25 11:05:30;;;;;;;54.20;30.80;;;7.90;50.30;;;;;;5076166;28;20025;-76
2022/11/25 11:08:11;;;;;;;16.70;9.50;;;7.90;52.20;;;;;;5072597;28;20039;-79
2022/11/25 11:10:38;;;;;;;27.63;14.15;;;7.90;58.80;;;;;;5093364;28;20040;-77
2022/11/25 11:13:29;;;;;;;25.60;14.00;;;8.00;59.40;;;;;;5091948;28;20036;-77
2022/11/25 11:15:55;;;;;;;35.93;18.30;;;8.00;60.50;;;;;;5090958;28;20381;-78
2022/11/25 11:18:27;;;;;;;62.08;31.58;;;8.00;61.60;;;;;;5074353;28;20041;-81
2022/11/25 11:20:56;;;;;;;16.55;7.45;;;8.00;55.40;;;;;;5092534;28;20028;-81
2022/11/25 11:23:23;;;;;;;19.63;8.77;;;8.10;56.30;;;;;;5090252;28;20035;-81
2022/11/25 11:26:08;;;;;;;14.95;6.28;;;8.10;54.40;;;;;;5072720;28;20484;-81
2022/11/25 11:28:37;;;;;;;11.30;5.43;;;8.20;48.90;;;;;;5079521;28;20474;-81
2022/11/25 11:31:23;;;;;;;9.95;4.25;;;8.20;49.00;;;;;;5087166;28;20044;-81
2022/11/25 11:34:15;;;;;;;6.85;4.05;;;8.30;45.90;;;;;;5073762;28;20033;-81
2022/11/25 11:37:08;;;;;;;12.27;5.63;;;8.40;40.70;;;;;;5070115;28;20476;-81
2022/11/25 11:39:58;;;;;;;7.63;4.15;;;8.40;42.80;;;;;;5069252;28;20039;-80
2022/11/25 11:42:25;;;;;;;8.15;5.43;;;8.50;39.60;;;;;;5079158;28;20040;-81
2022/11/25 11:44:58;;;;;;;8.43;4.35;;;8.50;41.40;;;;;;5092166;28;20032;-81
2022/11/25 11:47:49;;;;;;;7.18;3.60;;;8.40;40.10;;;;;;5090656;28;20099;-81
2022/11/25 11:50:25;;;;;;;54.22;29.83;;;8.40;41.60;;;;;;5091656;28;20036;-81
2022/11/25 11:52:51;;;;;;;76.68;40.38;;;8.40;48.60;;;;;;5086029;28;20409;-81
2022/11/25 11:56:03;;;;;;;38.25;19.23;;;8.40;51.30;;;;;;5091576;28;20024;-81
2022/11/25 11:58:58;;;;;;;;;;;8.40;51.00;;;;;;5067620;28;20047;-81
2022/11/25 12:01:38;;;;;;;14.32;5.38;;;8.40;47.80;;;;;;5082806;28;20384;-81
2022/11/25 12:04:20;;;;;;;17.10;8.65;;;8.40;47.60;;;;;;5091202;28;20470;-81
2022/11/25 12:06:58;;;;;;;9.55;4.82;;;8.60;47.20;;;;;;5089966;28;20400;-81
2022/11/25 12:09:27;;;;;;;11.70;5.68;;;8.80;42.00;;;;;;5091741;28;20031;-81
2022/11/25 12:12:01;;;;;;;10.90;6.28;;;8.90;41.50;;;;;;5085037;28;20088;-81
2022/11/25 12:14:45;;;;;;;19.25;8.90;;;9.00;39.50;;;;;;5072509;28;20457;-81
2022/11/25 12:17:34;;;;;;;14.98;7.43;;;9.00;38.50;;;;;;5068888;28;20049;-81
2022/11/25 12:20:16;;;;;;;7.28;5.05;;;9.10;35.70;;;;;;5070122;28;20048;-82
2022/11/25 12:22:45;;;;;;;11.80;6.47;;;9.10;27.20;;;;;;5087087;28;20044;-80
2022/11/25 12:25:26;;;;;;;38.33;18.50;;;9.00;33.40;;;;;;5071603;28;20024;-80
2022/11/25 12:28:04;;;;;;;17.90;7.88;;;9.00;34.40;;;;;;5070925;28;20389;-80
2022/11/25 12:30:42;;;;;;;9.25;4.85;;;9.00;35.20;;;;;;5072785;28;20060;-82
2022/11/25 12:33:16;;;;;;;8.57;5.15;;;8.90;38.60;;;;;;5086268;28;20492;-81
2022/11/25 12:36:01;;;;;;;14.43;6.15;;;9.00;39.40;;;;;;5071528;28;20032;-80
2022/11/25 12:38:37;;;;;;;42.92;19.67;;;9.00;37.10;;;;;;5070937;28;20416;-82
2022/11/25 12:41:12;;;;;;;12.48;5.78;;;9.00;38.00;;;;;;5071532;28;20377;-82
2022/11/25 12:44:02;;;;;;;13.32;4.93;;;9.10;35.10;;;;;;5089245;28;20118;-82
2022/11/25 12:46:31;;;;;;;50.60;23.55;;;9.20;33.80;;;;;;5090123;28;20044;-81
2022/11/25 12:48:58;;;;;;;18.77;10.32;;;9.20;35.40;;;;;;5088812;28;20129;-81
2022/11/25 12:51:36;;;;;;;11.85;5.30;;;9.30;31.30;;;;;;5090877;28;20043;-82
2022/11/25 12:54:16;;;;;;;35.15;15.35;;;9.30;29.20;;;;;;5072113;28;20118;-82
2022/11/25 12:56:51;;;;;;;28.13;13.23;;;9.30;34.30;;;;;;5072832;28;20469;-81
2022/11/25 12:59:26;;;;;;;11.07;6.05;;;9.30;32.10;;;;;;5090356;28;20051;-81
2022/11/25 13:02:12;;;;;;;9.90;5.05;;;9.40;29.60;;;;;;5090424;28;20135;-81
2022/11/25 13:05:16;;;;;;;18.30;9.55;;;9.40;31.10;;;;;;5089922;28;20051;-81
2022/11/25 13:08:05;;;;;;;10.45;5.80;;;9.40;36.90;;;;;;5088382;28;20040;-81
2022/11/25 13:10:36;;;;;;;10.27;4.97;;;9.40;29.30;;;;;;5064392;28;20052;-81
2022/11/25 13:13:14;;;;;;;10.68;4.70;;;9.50;32.20;;;;;;5079216;28;20473;-82
2022/11/25 13:15:44;;;;;;;11.80;6.22;;;9.50;28.90;;;;;;5094280;28;20051;-81
2022/11/25 13:18:16;;;;;;;10.48;4.45;;;9.50;31.90;;;;;;5088566;28;20036;-81